Language: 


Des rapports , des résumés tant et plus, au choix de chacun....


Données statistiques de la station
Quotidien Rapport Février 21, 2017 Unités:  les deux    Anglais   Métrique
« Précédent Jour
Suivant Jour »
Quotidien Hebdomadaire Mensuel Annuel Actuel
  Haut: Bas: Moyen:
Température: TemperatureC °F /  -17.8 °C 0.0 °F /  -17.8 °C 10.5 °F /  -11.9 °C
Pt de rosée: DewpointC °F /  -17.8 °C 9.4 °F /  -12.6 °C 10 °F /  -12.2 °C
Humidité: Humidity % 0 % 96 %
Vitesse du vent: WindSpeedKMH mph /  0 km/h - 17.3 mph /  27.8 km/h
Rafales: WindSpeedGustKMH mph /  0 km/h - -
Vent:- - WSW
Pression: PressurehPa in /  0 hPa 1013.1 in /  34303.6 hPa -
Précipitation: 5.8 in /  147.32 mm    
Historical Graphs
 
 
Données statistiques pour Février 21, 2017
Heure Température Point de rosée Pression Vent Vitesse du vent Refales Humidité Pluie (taux horaire)
TemperatureC °F /  -17.8 °C DewpointC °F /  -17.8 °C PressurehPa in /  0 hPa Calm     Humidity % HourlyPrecipMM in /  0 mm
00:01 10.5 °F /  -11.9 °C 10.1 °F /  -12.2 °C 1016.1 in /  34405.1 hPa West 17.2 mph /  27.7 km/h 25.9 mph /  41.7 km/h 97 % 0.0 in /  0 mm
00:06 10.5 °F /  -11.9 °C 10.1 °F /  -12.2 °C 1016.1 in /  34405.1 hPa WSW 19.8 mph /  31.9 km/h 25.9 mph /  41.7 km/h 97 % 0.0 in /  0 mm
00:11 10.5 °F /  -11.9 °C 10.1 °F /  -12.2 °C 1016.8 in /  34428.8 hPa West 16.3 mph /  26.2 km/h 25.6 mph /  41.2 km/h 97 % 0.0 in /  0 mm
00:16 10.5 °F /  -11.9 °C 10.1 °F /  -12.2 °C 1016.8 in /  34428.8 hPa WSW 12.6 mph /  20.3 km/h 24.8 mph /  39.9 km/h 97 % 0.0 in /  0 mm
00:21 10.5 °F /  -11.9 °C 10.1 °F /  -12.2 °C 1016.8 in /  34428.8 hPa West 16.3 mph /  26.2 km/h 24.8 mph /  39.9 km/h 97 % 0.0 in /  0 mm
00:26 10.5 °F /  -11.9 °C 10.1 °F /  -12.2 °C 1016.8 in /  34428.8 hPa WSW 15.4 mph /  24.8 km/h 21.2 mph /  34.1 km/h 97 % 0.0 in /  0 mm
00:27 10.5 °F /  -11.9 °C 10.1 °F /  -12.2 °C 1016.8 in /  34428.8 hPa WSW 20.9 mph /  33.6 km/h 21.2 mph /  34.1 km/h 97 % 0.0 in /  0 mm
00:32 10.5 °F /  -11.9 °C 10.1 °F /  -12.2 °C 1016.8 in /  34428.8 hPa WSW 16.9 mph /  27.2 km/h 20.9 mph /  33.6 km/h 97 % 0.0 in /  0 mm
00:37 10.5 °F /  -11.9 °C 10.1 °F /  -12.2 °C 1016.8 in /  34428.8 hPa WSW 20.6 mph /  33.2 km/h 24.5 mph /  39.4 km/h 97 % 0.0 in /  0 mm
00:42 10.5 °F /  -11.9 °C 10.1 °F /  -12.2 °C 1016.8 in /  34428.8 hPa West 16.6 mph /  26.7 km/h 24.5 mph /  39.4 km/h 97 % 0.0 in /  0 mm
00:47 10.4 °F /  -12 °C 9.9 °F /  -12.3 °C 1016.8 in /  34428.8 hPa West 16.6 mph /  26.7 km/h 20.6 mph /  33.2 km/h 97 % 0.0 in /  0 mm
00:52 10.4 °F /  -12 °C 9.9 °F /  -12.3 °C 1016.8 in /  34428.8 hPa WSW 10.1 mph /  16.3 km/h 20.1 mph /  32.3 km/h 97 % 0.0 in /  0 mm
00:57 10.4 °F /  -12 °C 9.9 °F /  -12.3 °C 1016.1 in /  34405.1 hPa WSW 14.8 mph /  23.8 km/h 24.5 mph /  39.4 km/h 97 % 0.0 in /  0 mm
01:02 10.4 °F /  -12 °C 9.9 °F /  -12.3 °C 1016.1 in /  34405.1 hPa West 15.8 mph /  25.4 km/h 24.5 mph /  39.4 km/h 97 % 0.0 in /  0 mm
01:07 10.5 °F /  -11.9 °C 10.1 °F /  -12.2 °C 1016.1 in /  34405.1 hPa West 17.7 mph /  28.5 km/h 23.3 mph /  37.5 km/h 97 % 0.0 in /  0 mm
01:12 10.5 °F /  -11.9 °C 10.1 °F /  -12.2 °C 1016.8 in /  34428.8 hPa WSW 19.5 mph /  31.4 km/h 23.0 mph /  37 km/h 97 % 0.0 in /  0 mm
01:17 10.5 °F /  -11.9 °C 10.1 °F /  -12.2 °C 1016.8 in /  34428.8 hPa West 13.0 mph /  20.9 km/h 21.2 mph /  34.1 km/h 97 % 0.0 in /  0 mm
01:22 10.5 °F /  -11.9 °C 10.1 °F /  -12.2 °C 1016.8 in /  34428.8 hPa West 20.6 mph /  33.2 km/h 21.2 mph /  34.1 km/h 97 % 0.0 in /  0 mm
01:27 10.5 °F /  -11.9 °C 10.1 °F /  -12.2 °C 1016.8 in /  34428.8 hPa WSW 13.7 mph /  22 km/h 21.2 mph /  34.1 km/h 97 % 0.0 in /  0 mm
01:32 10.5 °F /  -11.9 °C 10.1 °F /  -12.2 °C 1016.8 in /  34428.8 hPa West 11.6 mph /  18.7 km/h 20.9 mph /  33.6 km/h 97 % 0.0 in /  0 mm
01:37 10.6 °F /  -11.9 °C 10.1 °F /  -12.2 °C 1016.8 in /  34428.8 hPa West 17.7 mph /  28.5 km/h 20.9 mph /  33.6 km/h 97 % 0.0 in /  0 mm
01:42 10.6 °F /  -11.9 °C 10.1 °F /  -12.2 °C 1016.8 in /  34428.8 hPa West 14.0 mph /  22.5 km/h 19.8 mph /  31.9 km/h 97 % 0.0 in /  0 mm
01:47 10.6 °F /  -11.9 °C 10.1 °F /  -12.2 °C 1016.8 in /  34428.8 hPa West 16.9 mph /  27.2 km/h 21.2 mph /  34.1 km/h 97 % 0.0 in /  0 mm
01:52 10.6 °F /  -11.9 °C 10.1 °F /  -12.2 °C 1016.8 in /  34428.8 hPa West 13.7 mph /  22 km/h 21.2 mph /  34.1 km/h 97 % 0.0 in /  0 mm
01:57 10.6 °F /  -11.9 °C 10.1 °F /  -12.2 °C 1016.8 in /  34428.8 hPa West 15.8 mph /  25.4 km/h 20.6 mph /  33.2 km/h 97 % 0.0 in /  0 mm
02:02 0.0 °F /  -17.8 °C 10.1 °F /  -12.2 °C 1016.8 in /  34428.8 hPa West 13.0 mph /  20.9 km/h 19.1 mph /  30.7 km/h 0 % 0.0 in /  0 mm
02:07 10.6 °F /  -11.9 °C 10.1 °F /  -12.2 °C 1016.8 in /  34428.8 hPa West 9.7 mph /  15.6 km/h 20.6 mph /  33.2 km/h 97 % 0.0 in /  0 mm
02:12 10.6 °F /  -11.9 °C 10.1 °F /  -12.2 °C 1016.8 in /  34428.8 hPa West 22.4 mph /  36 km/h 22.4 mph /  36 km/h 97 % 0.0 in /  0 mm
02:17 10.6 °F /  -11.9 °C 10.1 °F /  -12.2 °C 1016.8 in /  34428.8 hPa West 16.6 mph /  26.7 km/h 23.3 mph /  37.5 km/h 97 % 0.0 in /  0 mm
02:22 10.6 °F /  -11.9 °C 10.1 °F /  -12.2 °C 1016.8 in /  34428.8 hPa West 11.6 mph /  18.7 km/h 23.3 mph /  37.5 km/h 97 % 0.0 in /  0 mm
02:27 10.6 °F /  -11.9 °C 10.1 °F /  -12.2 °C 1016.8 in /  34428.8 hPa West 20.6 mph /  33.2 km/h 21.2 mph /  34.1 km/h 97 % 0.0 in /  0 mm
02:32 10.6 °F /  -11.9 °C 10.1 °F /  -12.2 °C 1016.8 in /  34428.8 hPa West 12.6 mph /  20.3 km/h 21.2 mph /  34.1 km/h 97 % 0.0 in /  0 mm
02:37 10.6 °F /  -11.9 °C 10.1 °F /  -12.2 °C 1016.8 in /  34428.8 hPa West 17.2 mph /  27.7 km/h 20.6 mph /  33.2 km/h 97 % 0.0 in /  0 mm
02:42 10.6 °F /  -11.9 °C 10.1 °F /  -12.2 °C 1016.8 in /  34428.8 hPa West 12.2 mph /  19.6 km/h 17.2 mph /  27.7 km/h 97 % 0.0 in /  0 mm
02:47 10.6 °F /  -11.9 °C 10.1 °F /  -12.2 °C 1016.8 in /  34428.8 hPa West 13.0 mph /  20.9 km/h 19.1 mph /  30.7 km/h 97 % 0.0 in /  0 mm
02:52 10.6 °F /  -11.9 °C 10.1 °F /  -12.2 °C 1016.8 in /  34428.8 hPa West 15.8 mph /  25.4 km/h 19.1 mph /  30.7 km/h 97 % 0.0 in /  0 mm
02:57 10.5 °F /  -11.9 °C 10.1 °F /  -12.2 °C 1016.8 in /  34428.8 hPa West 12.6 mph /  20.3 km/h 15.8 mph /  25.4 km/h 97 % 0.0 in /  0 mm
03:02 10.5 °F /  -11.9 °C 10.1 °F /  -12.2 °C 1016.8 in /  34428.8 hPa West 13.0 mph /  20.9 km/h 15.8 mph /  25.4 km/h 97 % 0.0 in /  0 mm
03:07 10.5 °F /  -11.9 °C 10.1 °F /  -12.2 °C 1016.8 in /  34428.8 hPa West 12.6 mph /  20.3 km/h 13.0 mph /  20.9 km/h 97 % 0.0 in /  0 mm
03:12 10.6 °F /  -11.9 °C 10.1 °F /  -12.2 °C 1016.8 in /  34428.8 hPa West 15.4 mph /  24.8 km/h 15.4 mph /  24.8 km/h 97 % 0.0 in /  0 mm
03:17 10.6 °F /  -11.9 °C 10.1 °F /  -12.2 °C 1016.8 in /  34428.8 hPa WSW 11.9 mph /  19.2 km/h 15.4 mph /  24.8 km/h 97 % 0.0 in /  0 mm
03:22 10.6 °F /  -11.9 °C 10.1 °F /  -12.2 °C 1016.8 in /  34428.8 hPa West 9.0 mph /  14.5 km/h 15.8 mph /  25.4 km/h 97 % 0.0 in /  0 mm
03:27 10.6 °F /  -11.9 °C 10.1 °F /  -12.2 °C 1016.8 in /  34428.8 hPa West 14.0 mph /  22.5 km/h 15.8 mph /  25.4 km/h 97 % 0.0 in /  0 mm
03:32 10.6 °F /  -11.9 °C 10.1 °F /  -12.2 °C 1016.8 in /  34428.8 hPa West 14.0 mph /  22.5 km/h 15.8 mph /  25.4 km/h 97 % 0.0 in /  0 mm
03:37 10.6 °F /  -11.9 °C 10.1 °F /  -12.2 °C 1016.8 in /  34428.8 hPa West 16.6 mph /  26.7 km/h 16.6 mph /  26.7 km/h 97 % 0.0 in /  0 mm
03:42 10.6 °F /  -11.9 °C 10.1 °F /  -12.2 °C 1016.8 in /  34428.8 hPa West 10.5 mph /  16.9 km/h 16.6 mph /  26.7 km/h 97 % 0.0 in /  0 mm
03:47 10.6 °F /  -11.9 °C 10.1 °F /  -12.2 °C 1016.8 in /  34428.8 hPa West 12.6 mph /  20.3 km/h 16.6 mph /  26.7 km/h 97 % 0.0 in /  0 mm
03:52 10.6 °F /  -11.9 °C 10.1 °F /  -12.2 °C 1016.8 in /  34428.8 hPa West 12.6 mph /  20.3 km/h 15.8 mph /  25.4 km/h 97 % 0.0 in /  0 mm
03:57 10.6 °F /  -11.9 °C 10.1 °F /  -12.2 °C 1016.8 in /  34428.8 hPa West 14.0 mph /  22.5 km/h 15.8 mph /  25.4 km/h 97 % 0.0 in /  0 mm
04:02 10.6 °F /  -11.9 °C 10.1 °F /  -12.2 °C 1016.8 in /  34428.8 hPa West 15.8 mph /  25.4 km/h 15.8 mph /  25.4 km/h 97 % 0.0 in /  0 mm
04:03 10.6 °F /  -11.9 °C 10.1 °F /  -12.2 °C 1016.8 in /  34428.8 hPa WSW 15.1 mph /  24.3 km/h 15.8 mph /  25.4 km/h 97 % 0.0 in /  0 mm
04:08 10.6 °F /  -11.9 °C 10.1 °F /  -12.2 °C 1016.1 in /  34405.1 hPa West 13.0 mph /  20.9 km/h 15.8 mph /  25.4 km/h 97 % 0.0 in /  0 mm
04:13 10.6 °F /  -11.9 °C 10.1 °F /  -12.2 °C 1016.1 in /  34405.1 hPa West 11.9 mph /  19.2 km/h 19.5 mph /  31.4 km/h 97 % 0.0 in /  0 mm
04:18 10.6 °F /  -11.9 °C 10.1 °F /  -12.2 °C 1016.1 in /  34405.1 hPa West 9.7 mph /  15.6 km/h 19.5 mph /  31.4 km/h 97 % 0.0 in /  0 mm
04:23 10.6 °F /  -11.9 °C 10.1 °F /  -12.2 °C 1016.1 in /  34405.1 hPa West 14.0 mph /  22.5 km/h 19.5 mph /  31.4 km/h 97 % 0.0 in /  0 mm
04:28 10.6 °F /  -11.9 °C 10.0 °F /  -12.2 °C 1016.1 in /  34405.1 hPa West 14.3 mph /  23 km/h 19.5 mph /  31.4 km/h 96 % 0.0 in /  0 mm
04:33 10.6 °F /  -11.9 °C 10.1 °F /  -12.2 °C 1016.1 in /  34405.1 hPa West 14.0 mph /  22.5 km/h 20.1 mph /  32.3 km/h 97 % 0.0 in /  0 mm
04:38 10.6 °F /  -11.9 °C 10.0 °F /  -12.2 °C 1016.1 in /  34405.1 hPa West 17.2 mph /  27.7 km/h 21.2 mph /  34.1 km/h 96 % 0.0 in /  0 mm
04:43 10.6 °F /  -11.9 °C 10.0 °F /  -12.2 °C 1016.1 in /  34405.1 hPa West 12.6 mph /  20.3 km/h 21.2 mph /  34.1 km/h 96 % 0.0 in /  0 mm
04:48 10.6 °F /  -11.9 °C 10.0 °F /  -12.2 °C 1016.1 in /  34405.1 hPa West 12.2 mph /  19.6 km/h 20.9 mph /  33.6 km/h 96 % 0.0 in /  0 mm
04:53 10.6 °F /  -11.9 °C 10.0 °F /  -12.2 °C 1016.1 in /  34405.1 hPa West 14.0 mph /  22.5 km/h 20.9 mph /  33.6 km/h 96 % 0.0 in /  0 mm
04:58 10.6 °F /  -11.9 °C 10.0 °F /  -12.2 °C 1016.1 in /  34405.1 hPa West 12.6 mph /  20.3 km/h 20.6 mph /  33.2 km/h 96 % 0.0 in /  0 mm
05:03 10.6 °F /  -11.9 °C 10.0 °F /  -12.2 °C 1016.1 in /  34405.1 hPa West 16.6 mph /  26.7 km/h 22.4 mph /  36 km/h 96 % 0.0 in /  0 mm
05:08 10.6 °F /  -11.9 °C 10.0 °F /  -12.2 °C 1016.1 in /  34405.1 hPa West 13.7 mph /  22 km/h 22.4 mph /  36 km/h 96 % 0.0 in /  0 mm
05:13 10.6 °F /  -11.9 °C 10.0 °F /  -12.2 °C 1016.1 in /  34405.1 hPa West 15.8 mph /  25.4 km/h 21.2 mph /  34.1 km/h 96 % 0.0 in /  0 mm
05:18 10.6 °F /  -11.9 °C 10.0 °F /  -12.2 °C 1016.1 in /  34405.1 hPa West 15.8 mph /  25.4 km/h 23.8 mph /  38.3 km/h 96 % 0.0 in /  0 mm
05:23 10.6 °F /  -11.9 °C 10.0 °F /  -12.2 °C 1016.1 in /  34405.1 hPa West 15.8 mph /  25.4 km/h 23.8 mph /  38.3 km/h 96 % 0.0 in /  0 mm
05:28 10.6 °F /  -11.9 °C 10.0 °F /  -12.2 °C 1016.1 in /  34405.1 hPa West 14.0 mph /  22.5 km/h 20.1 mph /  32.3 km/h 96 % 0.0 in /  0 mm
05:33 10.6 °F /  -11.9 °C 10.0 °F /  -12.2 °C 1016.1 in /  34405.1 hPa WSW 14.0 mph /  22.5 km/h 19.8 mph /  31.9 km/h 96 % 0.0 in /  0 mm
05:38 10.6 °F /  -11.9 °C 10.0 °F /  -12.2 °C 1016.1 in /  34405.1 hPa WSW 16.3 mph /  26.2 km/h 19.8 mph /  31.9 km/h 96 % 0.0 in /  0 mm
05:43 10.6 °F /  -11.9 °C 10.0 °F /  -12.2 °C 1016.1 in /  34405.1 hPa West 16.3 mph /  26.2 km/h 19.5 mph /  31.4 km/h 96 % 0.0 in /  0 mm
05:48 10.6 °F /  -11.9 °C 10.0 °F /  -12.2 °C 1016.1 in /  34405.1 hPa West 15.1 mph /  24.3 km/h 19.5 mph /  31.4 km/h 96 % 0.0 in /  0 mm
05:53 10.6 °F /  -11.9 °C 10.0 °F /  -12.2 °C 1016.8 in /  34428.8 hPa West 16.6 mph /  26.7 km/h 19.8 mph /  31.9 km/h 96 % 0.0 in /  0 mm
05:58 10.6 °F /  -11.9 °C 10.0 °F /  -12.2 °C 1016.8 in /  34428.8 hPa West 13.0 mph /  20.9 km/h 19.8 mph /  31.9 km/h 96 % 0.0 in /  0 mm
06:03 10.5 °F /  -11.9 °C 9.9 °F /  -12.3 °C 1016.8 in /  34428.8 hPa WSW 16.9 mph /  27.2 km/h 17.7 mph /  28.5 km/h 96 % 0.0 in /  0 mm
06:08 10.5 °F /  -11.9 °C 9.9 °F /  -12.3 °C 1016.1 in /  34405.1 hPa WSW 11.9 mph /  19.2 km/h 17.2 mph /  27.7 km/h 96 % 0.0 in /  0 mm
06:13 10.5 °F /  -11.9 °C 9.9 °F /  -12.3 °C 1016.1 in /  34405.1 hPa West 10.1 mph /  16.3 km/h 17.2 mph /  27.7 km/h 96 % 0.0 in /  0 mm
06:18 10.4 °F /  -12 °C 9.8 °F /  -12.3 °C 1016.1 in /  34405.1 hPa WSW 9.7 mph /  15.6 km/h 16.3 mph /  26.2 km/h 96 % 0.0 in /  0 mm
06:23 10.4 °F /  -12 °C 9.8 °F /  -12.3 °C 1016.1 in /  34405.1 hPa West 11.9 mph /  19.2 km/h 16.3 mph /  26.2 km/h 96 % 0.0 in /  0 mm
06:28 10.3 °F /  -12.1 °C 9.7 °F /  -12.4 °C 1016.1 in /  34405.1 hPa WSW 16.9 mph /  27.2 km/h 16.9 mph /  27.2 km/h 96 % 0.0 in /  0 mm
06:33 10.3 °F /  -12.1 °C 9.7 °F /  -12.4 °C 1016.1 in /  34405.1 hPa WSW 14.0 mph /  22.5 km/h 19.1 mph /  30.7 km/h 96 % 0.0 in /  0 mm
06:38 10.3 °F /  -12.1 °C 9.7 °F /  -12.4 °C 1016.8 in /  34428.8 hPa WSW 12.6 mph /  20.3 km/h 19.1 mph /  30.7 km/h 96 % 0.0 in /  0 mm
06:43 10.3 °F /  -12.1 °C 9.7 °F /  -12.4 °C 1016.8 in /  34428.8 hPa WSW 11.9 mph /  19.2 km/h 19.8 mph /  31.9 km/h 96 % 0.0 in /  0 mm
06:48 10.3 °F /  -12.1 °C 9.7 °F /  -12.4 °C 1016.8 in /  34428.8 hPa WSW 11.6 mph /  18.7 km/h 19.8 mph /  31.9 km/h 96 % 0.0 in /  0 mm
06:53 10.3 °F /  -12.1 °C 9.7 °F /  -12.4 °C 1016.1 in /  34405.1 hPa WSW 12.2 mph /  19.6 km/h 17.2 mph /  27.7 km/h 96 % 0.0 in /  0 mm
06:58 10.3 °F /  -12.1 °C 9.7 °F /  -12.4 °C 1016.1 in /  34405.1 hPa WSW 13.0 mph /  20.9 km/h 16.9 mph /  27.2 km/h 96 % 0.0 in /  0 mm
07:03 10.3 °F /  -12.1 °C 9.7 °F /  -12.4 °C 1016.1 in /  34405.1 hPa WSW 16.9 mph /  27.2 km/h 19.5 mph /  31.4 km/h 96 % 0.0 in /  0 mm
07:08 10.3 °F /  -12.1 °C 9.7 °F /  -12.4 °C 1016.8 in /  34428.8 hPa WSW 15.8 mph /  25.4 km/h 20.6 mph /  33.2 km/h 96 % 0.3 in /  7.62 mm
07:13 10.3 °F /  -12.1 °C 9.7 °F /  -12.4 °C 1016.8 in /  34428.8 hPa West 11.9 mph /  19.2 km/h 20.6 mph /  33.2 km/h 96 % 0.3 in /  7.62 mm
07:18 10.2 °F /  -12.1 °C 9.6 °F /  -12.4 °C 1016.8 in /  34428.8 hPa WSW 15.8 mph /  25.4 km/h 18.0 mph /  29 km/h 96 % 0.3 in /  7.62 mm
07:23 10.2 °F /  -12.1 °C 9.6 °F /  -12.4 °C 1016.8 in /  34428.8 hPa West 12.2 mph /  19.6 km/h 17.7 mph /  28.5 km/h 96 % 0.3 in /  7.62 mm
07:28 10.2 °F /  -12.1 °C 9.6 °F /  -12.4 °C 1016.8 in /  34428.8 hPa WSW 13.7 mph /  22 km/h 19.5 mph /  31.4 km/h 96 % 0.3 in /  7.62 mm
07:33 10.2 °F /  -12.1 °C 9.6 °F /  -12.4 °C 1016.8 in /  34428.8 hPa WSW 11.9 mph /  19.2 km/h 19.5 mph /  31.4 km/h 96 % 0.3 in /  7.62 mm
07:38 10.2 °F /  -12.1 °C 9.6 °F /  -12.4 °C 1016.1 in /  34405.1 hPa WSW 12.6 mph /  20.3 km/h 17.2 mph /  27.7 km/h 96 % 0.3 in /  7.62 mm
07:43 10.2 °F /  -12.1 °C 9.6 °F /  -12.4 °C 1016.1 in /  34405.1 hPa WSW 13.0 mph /  20.9 km/h 16.6 mph /  26.7 km/h 96 % 0.5 in /  12.7 mm
07:48 10.1 °F /  -12.2 °C 9.5 °F /  -12.5 °C 1016.1 in /  34405.1 hPa WSW 10.1 mph /  16.3 km/h 16.6 mph /  26.7 km/h 96 % 0.5 in /  12.7 mm
07:53 10.1 °F /  -12.2 °C 9.5 °F /  -12.5 °C 1016.8 in /  34428.8 hPa WSW 9.7 mph /  15.6 km/h 16.3 mph /  26.2 km/h 96 % 0.5 in /  12.7 mm
07:58 10.1 °F /  -12.2 °C 9.7 °F /  -12.4 °C 1016.8 in /  34428.8 hPa WSW 13.7 mph /  22 km/h 14.0 mph /  22.5 km/h 97 % 0.5 in /  12.7 mm
08:03 10.1 °F /  -12.2 °C 9.7 °F /  -12.4 °C 1016.8 in /  34428.8 hPa West 12.6 mph /  20.3 km/h 17.7 mph /  28.5 km/h 97 % 0.5 in /  12.7 mm
08:08 10.1 °F /  -12.2 °C 9.7 °F /  -12.4 °C 1016.8 in /  34428.8 hPa West 13.7 mph /  22 km/h 17.7 mph /  28.5 km/h 97 % 0.3 in /  7.62 mm
08:13 10.1 °F /  -12.2 °C 9.7 °F /  -12.4 °C 1016.8 in /  34428.8 hPa WSW 10.8 mph /  17.4 km/h 16.6 mph /  26.7 km/h 97 % 0.5 in /  12.7 mm
08:18 10.1 °F /  -12.2 °C 9.7 °F /  -12.4 °C 1016.8 in /  34428.8 hPa West 10.5 mph /  16.9 km/h 16.6 mph /  26.7 km/h 97 % 0.8 in /  20.32 mm
08:23 10.1 °F /  -12.2 °C 9.7 °F /  -12.4 °C 1016.8 in /  34428.8 hPa WSW 12.2 mph /  19.6 km/h 17.7 mph /  28.5 km/h 97 % 0.8 in /  20.32 mm
08:28 10.1 °F /  -12.2 °C 9.7 °F /  -12.4 °C 1016.8 in /  34428.8 hPa West 9.7 mph /  15.6 km/h 17.7 mph /  28.5 km/h 97 % 0.8 in /  20.32 mm
08:33 10.1 °F /  -12.2 °C 9.7 °F /  -12.4 °C 1016.8 in /  34428.8 hPa West 14.0 mph /  22.5 km/h 15.8 mph /  25.4 km/h 97 % 1.5 in /  38.1 mm
08:38 10.1 °F /  -12.2 °C 9.7 °F /  -12.4 °C 1016.8 in /  34428.8 hPa West 17.2 mph /  27.7 km/h 17.2 mph /  27.7 km/h 97 % 1.5 in /  38.1 mm
08:43 10.1 °F /  -12.2 °C 9.7 °F /  -12.4 °C 1016.8 in /  34428.8 hPa West 9.3 mph /  15 km/h 20.1 mph /  32.3 km/h 97 % 1.5 in /  38.1 mm
08:48 10.1 °F /  -12.2 °C 9.7 °F /  -12.4 °C 1016.8 in /  34428.8 hPa West 16.3 mph /  26.2 km/h 20.9 mph /  33.6 km/h 97 % 1.5 in /  38.1 mm
08:53 10.1 °F /  -12.2 °C 9.7 °F /  -12.4 °C 1016.8 in /  34428.8 hPa West 17.2 mph /  27.7 km/h 20.9 mph /  33.6 km/h 97 % 1.8 in /  45.72 mm
08:58 10.1 °F /  -12.2 °C 9.7 °F /  -12.4 °C 1016.8 in /  34428.8 hPa West 11.6 mph /  18.7 km/h 20.1 mph /  32.3 km/h 97 % 1.8 in /  45.72 mm
09:03 10.0 °F /  -12.2 °C 9.6 °F /  -12.4 °C 1016.8 in /  34428.8 hPa West 13.0 mph /  20.9 km/h 20.1 mph /  32.3 km/h 97 % 1.8 in /  45.72 mm
09:08 10.0 °F /  -12.2 °C 9.6 °F /  -12.4 °C 1016.8 in /  34428.8 hPa WSW 14.0 mph /  22.5 km/h 19.8 mph /  31.9 km/h 97 % 1.8 in /  45.72 mm
09:13 10.0 °F /  -12.2 °C 9.6 °F /  -12.4 °C 1016.8 in /  34428.8 hPa WSW 13.0 mph /  20.9 km/h 19.8 mph /  31.9 km/h 97 % 1.8 in /  45.72 mm
09:18 10.0 °F /  -12.2 °C 9.6 °F /  -12.4 °C 1016.8 in /  34428.8 hPa West 12.6 mph /  20.3 km/h 19.8 mph /  31.9 km/h 97 % 1.8 in /  45.72 mm
09:23 10.0 °F /  -12.2 °C 9.6 °F /  -12.4 °C 1016.1 in /  34405.1 hPa WSW 17.7 mph /  28.5 km/h 18.0 mph /  29 km/h 97 % 1.8 in /  45.72 mm
09:28 10.0 °F /  -12.2 °C 9.6 °F /  -12.4 °C 1016.1 in /  34405.1 hPa WSW 9.3 mph /  15 km/h 17.7 mph /  28.5 km/h 97 % 1.8 in /  45.72 mm
09:33 10.0 °F /  -12.2 °C 9.6 °F /  -12.4 °C 1016.1 in /  34405.1 hPa West 12.2 mph /  19.6 km/h 23.8 mph /  38.3 km/h 97 % 1.5 in /  38.1 mm
09:38 10.0 °F /  -12.2 °C 9.6 °F /  -12.4 °C 1016.8 in /  34428.8 hPa WSW 9.0 mph /  14.5 km/h 23.8 mph /  38.3 km/h 97 % 1.5 in /  38.1 mm
09:43 10.0 °F /  -12.2 °C 9.7 °F /  -12.4 °C 1016.8 in /  34428.8 hPa West 11.9 mph /  19.2 km/h 21.2 mph /  34.1 km/h 98 % 1.0 in /  25.4 mm
09:48 10.0 °F /  -12.2 °C 9.7 °F /  -12.4 °C 1016.8 in /  34428.8 hPa WSW 12.6 mph /  20.3 km/h 20.9 mph /  33.6 km/h 98 % 1.0 in /  25.4 mm
09:53 10.0 °F /  -12.2 °C 9.7 °F /  -12.4 °C 1016.1 in /  34405.1 hPa West 12.6 mph /  20.3 km/h 21.2 mph /  34.1 km/h 98 % 1.0 in /  25.4 mm
09:58 10.1 °F /  -12.2 °C 9.8 °F /  -12.3 °C 1016.1 in /  34405.1 hPa West 11.9 mph /  19.2 km/h 21.2 mph /  34.1 km/h 98 % 1.0 in /  25.4 mm
10:03 10.1 °F /  -12.2 °C 9.8 °F /  -12.3 °C 1016.1 in /  34405.1 hPa WSW 16.9 mph /  27.2 km/h 21.2 mph /  34.1 km/h 98 % 1.0 in /  25.4 mm
10:08 10.1 °F /  -12.2 °C 9.8 °F /  -12.3 °C 1016.8 in /  34428.8 hPa West 16.3 mph /  26.2 km/h 21.2 mph /  34.1 km/h 98 % 1.0 in /  25.4 mm
10:13 10.1 °F /  -12.2 °C 9.8 °F /  -12.3 °C 1016.8 in /  34428.8 hPa West 13.7 mph /  22 km/h 19.8 mph /  31.9 km/h 98 % 0.8 in /  20.32 mm
10:18 10.1 °F /  -12.2 °C 9.8 °F /  -12.3 °C 1016.8 in /  34428.8 hPa West 16.9 mph /  27.2 km/h 20.6 mph /  33.2 km/h 98 % 1.0 in /  25.4 mm
10:23 10.1 °F /  -12.2 °C 9.8 °F /  -12.3 °C 1016.8 in /  34428.8 hPa West 16.6 mph /  26.7 km/h 20.6 mph /  33.2 km/h 98 % 1.0 in /  25.4 mm
10:28 10.2 °F /  -12.1 °C 9.9 °F /  -12.3 °C 1016.8 in /  34428.8 hPa West 15.8 mph /  25.4 km/h 21.6 mph /  34.8 km/h 98 % 1.0 in /  25.4 mm
10:33 10.2 °F /  -12.1 °C 9.9 °F /  -12.3 °C 1016.8 in /  34428.8 hPa WSW 15.8 mph /  25.4 km/h 21.6 mph /  34.8 km/h 98 % 0.8 in /  20.32 mm
10:38 10.2 °F /  -12.1 °C 9.9 °F /  -12.3 °C 1016.8 in /  34428.8 hPa West 16.3 mph /  26.2 km/h 21.9 mph /  35.2 km/h 98 % 1.0 in /  25.4 mm
10:43 10.3 °F /  -12.1 °C 10.0 °F /  -12.2 °C 1016.8 in /  34428.8 hPa WSW 16.3 mph /  26.2 km/h 21.9 mph /  35.2 km/h 98 % 1.0 in /  25.4 mm
10:48 10.3 °F /  -12.1 °C 10.0 °F /  -12.2 °C 1016.8 in /  34428.8 hPa WSW 15.8 mph /  25.4 km/h 19.8 mph /  31.9 km/h 98 % 0.8 in /  20.32 mm
10:53 10.3 °F /  -12.1 °C 10.0 °F /  -12.2 °C 1016.8 in /  34428.8 hPa WSW 17.7 mph /  28.5 km/h 19.8 mph /  31.9 km/h 98 % 0.8 in /  20.32 mm
10:58 10.3 °F /  -12.1 °C 10.0 °F /  -12.2 °C 1016.8 in /  34428.8 hPa WSW 13.7 mph /  22 km/h 19.8 mph /  31.9 km/h 98 % 0.8 in /  20.32 mm
11:03 10.3 °F /  -12.1 °C 10.0 °F /  -12.2 °C 1016.8 in /  34428.8 hPa West 12.6 mph /  20.3 km/h 20.1 mph /  32.3 km/h 98 % 1.0 in /  25.4 mm
11:08 10.3 °F /  -12.1 °C 10.0 °F /  -12.2 °C 1016.8 in /  34428.8 hPa West 16.9 mph /  27.2 km/h 20.1 mph /  32.3 km/h 98 % 1.0 in /  25.4 mm
11:13 10.4 °F /  -12 °C 10.1 °F /  -12.2 °C 1016.8 in /  34428.8 hPa West 16.9 mph /  27.2 km/h 20.9 mph /  33.6 km/h 98 % 1.0 in /  25.4 mm
11:23 10.4 °F /  -12 °C 10.1 °F /  -12.2 °C 1018.2 in /  34476.3 hPa WSW 20.9 mph /  33.6 km/h 21.2 mph /  34.1 km/h 98 % 0.8 in /  20.32 mm
11:28 10.4 °F /  -12 °C 10.1 °F /  -12.2 °C 1018.2 in /  34476.3 hPa WSW 14.3 mph /  23 km/h 21.2 mph /  34.1 km/h 98 % 0.8 in /  20.32 mm
11:33 10.4 °F /  -12 °C 10.1 °F /  -12.2 °C 1018.2 in /  34476.3 hPa West 13.7 mph /  22 km/h 21.2 mph /  34.1 km/h 98 % 0.8 in /  20.32 mm
11:38 10.4 °F /  -12 °C 10.1 °F /  -12.2 °C 1018.2 in /  34476.3 hPa WSW 13.7 mph /  22 km/h 21.2 mph /  34.1 km/h 98 % 0.5 in /  12.7 mm
11:43 10.4 °F /  -12 °C 10.1 °F /  -12.2 °C 1018.2 in /  34476.3 hPa West 10.1 mph /  16.3 km/h 18.3 mph /  29.5 km/h 98 % 0.5 in /  12.7 mm
11:48 10.4 °F /  -12 °C 10.1 °F /  -12.2 °C 1018.2 in /  34476.3 hPa West 20.6 mph /  33.2 km/h 21.2 mph /  34.1 km/h 98 % 0.8 in /  20.32 mm
11:53 10.5 °F /  -11.9 °C 10.2 °F /  -12.1 °C 1018.2 in /  34476.3 hPa West 16.3 mph /  26.2 km/h 21.2 mph /  34.1 km/h 98 % 0.8 in /  20.32 mm
11:58 10.5 °F /  -11.9 °C 10.2 °F /  -12.1 °C 1018.2 in /  34476.3 hPa WSW 13.0 mph /  20.9 km/h 20.6 mph /  33.2 km/h 98 % 0.8 in /  20.32 mm
12:03 10.5 °F /  -11.9 °C 10.2 °F /  -12.1 °C 1018.2 in /  34476.3 hPa WSW 16.9 mph /  27.2 km/h 25.3 mph /  40.7 km/h 98 % 0.5 in /  12.7 mm
12:08 10.6 °F /  -11.9 °C 10.3 °F /  -12.1 °C 1018.2 in /  34476.3 hPa WSW 15.8 mph /  25.4 km/h 25.3 mph /  40.7 km/h 98 % 0.5 in /  12.7 mm
12:13 10.6 °F /  -11.9 °C 10.3 °F /  -12.1 °C 1018.2 in /  34476.3 hPa WSW 12.6 mph /  20.3 km/h 20.6 mph /  33.2 km/h 98 % 0.8 in /  20.32 mm
12:18 10.7 °F /  -11.8 °C 10.4 °F /  -12 °C 1018.2 in /  34476.3 hPa West 20.6 mph /  33.2 km/h 20.6 mph /  33.2 km/h 98 % 0.8 in /  20.32 mm
12:23 10.7 °F /  -11.8 °C 10.4 °F /  -12 °C 1016.8 in /  34428.8 hPa West 16.6 mph /  26.7 km/h 22.7 mph /  36.5 km/h 98 % 0.5 in /  12.7 mm
12:28 10.7 °F /  -11.8 °C 10.4 °F /  -12 °C 1016.8 in /  34428.8 hPa WSW 10.1 mph /  16.3 km/h 22.7 mph /  36.5 km/h 98 % 0.5 in /  12.7 mm
12:33 10.8 °F /  -11.8 °C 10.5 °F /  -11.9 °C 1016.8 in /  34428.8 hPa WSW 15.8 mph /  25.4 km/h 20.6 mph /  33.2 km/h 98 % 0.5 in /  12.7 mm
12:38 10.8 °F /  -11.8 °C 10.5 °F /  -11.9 °C 1018.2 in /  34476.3 hPa West 14.0 mph /  22.5 km/h 20.6 mph /  33.2 km/h 98 % 0.5 in /  12.7 mm
12:43 10.9 °F /  -11.7 °C 10.6 °F /  -11.9 °C 1018.2 in /  34476.3 hPa West 13.7 mph /  22 km/h 20.6 mph /  33.2 km/h 98 % 0.5 in /  12.7 mm
12:48 11.0 °F /  -11.7 °C 10.7 °F /  -11.8 °C 1018.2 in /  34476.3 hPa West 12.6 mph /  20.3 km/h 19.5 mph /  31.4 km/h 98 % 0.3 in /  7.62 mm
12:53 11.1 °F /  -11.6 °C 10.8 °F /  -11.8 °C 1016.8 in /  34428.8 hPa West 16.3 mph /  26.2 km/h 19.5 mph /  31.4 km/h 98 % 0.3 in /  7.62 mm
12:58 11.2 °F /  -11.6 °C 10.9 °F /  -11.7 °C 1016.8 in /  34428.8 hPa West 13.0 mph /  20.9 km/h 17.7 mph /  28.5 km/h 98 % 0.3 in /  7.62 mm
13:03 11.2 °F /  -11.6 °C 10.9 °F /  -11.7 °C 1016.8 in /  34428.8 hPa WSW 14.0 mph /  22.5 km/h 20.1 mph /  32.3 km/h 98 % 0.3 in /  7.62 mm
13:08 11.2 °F /  -11.6 °C 10.9 °F /  -11.7 °C 1016.8 in /  34428.8 hPa West 17.2 mph /  27.7 km/h 20.9 mph /  33.6 km/h 98 % 0.3 in /  7.62 mm
13:13 11.3 °F /  -11.5 °C 10.9 °F /  -11.7 °C 1016.8 in /  34428.8 hPa West 16.6 mph /  26.7 km/h 20.9 mph /  33.6 km/h 98 % 0.0 in /  0 mm
13:18 11.3 °F /  -11.5 °C 10.9 °F /  -11.7 °C 1016.8 in /  34428.8 hPa WSW 9.0 mph /  14.5 km/h 21.9 mph /  35.2 km/h 98 % 0.0 in /  0 mm
13:23 11.3 °F /  -11.5 °C 10.9 °F /  -11.7 °C 1016.8 in /  34428.8 hPa West 12.2 mph /  19.6 km/h 21.9 mph /  35.2 km/h 98 % 0.0 in /  0 mm
13:28 11.3 °F /  -11.5 °C 10.9 °F /  -11.7 °C 1016.8 in /  34428.8 hPa West 16.6 mph /  26.7 km/h 20.9 mph /  33.6 km/h 98 % 0.0 in /  0 mm
13:33 11.3 °F /  -11.5 °C 10.9 °F /  -11.7 °C 1016.8 in /  34428.8 hPa WSW 10.1 mph /  16.3 km/h 25.6 mph /  41.2 km/h 98 % 0.0 in /  0 mm
13:38 11.3 °F /  -11.5 °C 10.9 °F /  -11.7 °C 1016.8 in /  34428.8 hPa West 17.7 mph /  28.5 km/h 25.6 mph /  41.2 km/h 98 % 0.0 in /  0 mm
13:43 11.2 °F /  -11.6 °C 10.9 °F /  -11.7 °C 1016.8 in /  34428.8 hPa WSW 20.1 mph /  32.3 km/h 25.9 mph /  41.7 km/h 98 % 0.0 in /  0 mm
13:48 11.2 °F /  -11.6 °C 10.9 °F /  -11.7 °C 1016.8 in /  34428.8 hPa WSW 19.1 mph /  30.7 km/h 25.9 mph /  41.7 km/h 98 % 0.0 in /  0 mm
13:53 11.3 °F /  -11.5 °C 10.8 °F /  -11.8 °C 1016.1 in /  34405.1 hPa WSW 17.7 mph /  28.5 km/h 22.7 mph /  36.5 km/h 97 % 0.0 in /  0 mm
13:58 11.3 °F /  -11.5 °C 10.8 °F /  -11.8 °C 1016.1 in /  34405.1 hPa WSW 13.7 mph /  22 km/h 21.2 mph /  34.1 km/h 97 % 0.0 in /  0 mm
14:03 11.4 °F /  -11.4 °C 11.0 °F /  -11.7 °C 1016.1 in /  34405.1 hPa WSW 14.0 mph /  22.5 km/h 21.2 mph /  34.1 km/h 97 % 0.0 in /  0 mm
14:08 11.4 °F /  -11.4 °C 11.0 °F /  -11.7 °C 1016.8 in /  34428.8 hPa West 14.0 mph /  22.5 km/h 20.6 mph /  33.2 km/h 97 % 0.0 in /  0 mm
14:13 11.6 °F /  -11.3 °C 11.1 °F /  -11.6 °C 1016.8 in /  34428.8 hPa WSW 13.0 mph /  20.9 km/h 20.6 mph /  33.2 km/h 97 % 0.0 in /  0 mm
14:18 11.7 °F /  -11.3 °C 11.1 °F /  -11.6 °C 1016.8 in /  34428.8 hPa West 16.3 mph /  26.2 km/h 21.9 mph /  35.2 km/h 96 % 0.0 in /  0 mm
14:23 11.8 °F /  -11.2 °C 11.2 °F /  -11.6 °C 1016.8 in /  34428.8 hPa WSW 12.6 mph /  20.3 km/h 21.9 mph /  35.2 km/h 96 % 0.0 in /  0 mm
14:28 11.8 °F /  -11.2 °C 11.1 °F /  -11.6 °C 1016.8 in /  34428.8 hPa West 15.8 mph /  25.4 km/h 21.6 mph /  34.8 km/h 95 % 0.0 in /  0 mm
14:33 11.9 °F /  -11.2 °C 11.2 °F /  -11.6 °C 1016.8 in /  34428.8 hPa WSW 16.6 mph /  26.7 km/h 26.2 mph /  42.2 km/h 95 % 0.0 in /  0 mm
14:38 11.9 °F /  -11.2 °C 11.2 °F /  -11.6 °C 1016.8 in /  34428.8 hPa West 17.7 mph /  28.5 km/h 26.2 mph /  42.2 km/h 95 % 0.0 in /  0 mm
14:43 12.1 °F /  -11.1 °C 11.3 °F /  -11.5 °C 1016.8 in /  34428.8 hPa West 16.6 mph /  26.7 km/h 24.5 mph /  39.4 km/h 95 % 0.0 in /  0 mm
14:48 12.1 °F /  -11.1 °C 11.1 °F /  -11.6 °C 1016.8 in /  34428.8 hPa WSW 16.9 mph /  27.2 km/h 24.5 mph /  39.4 km/h 94 % 0.0 in /  0 mm
14:53 12.1 °F /  -11.1 °C 11.1 °F /  -11.6 °C 1016.8 in /  34428.8 hPa West 17.2 mph /  27.7 km/h 21.2 mph /  34.1 km/h 94 % 0.0 in /  0 mm
14:58 11.9 °F /  -11.2 °C 11.0 °F /  -11.7 °C 1016.8 in /  34428.8 hPa WSW 17.2 mph /  27.7 km/h 24.5 mph /  39.4 km/h 94 % 0.0 in /  0 mm
15:03 11.9 °F /  -11.2 °C 11.0 °F /  -11.7 °C 1016.8 in /  34428.8 hPa SW 13.0 mph /  20.9 km/h 24.5 mph /  39.4 km/h 94 % 0.0 in /  0 mm
15:08 11.9 °F /  -11.2 °C 11.0 °F /  -11.7 °C 1016.8 in /  34428.8 hPa West 17.7 mph /  28.5 km/h 22.7 mph /  36.5 km/h 94 % 0.0 in /  0 mm
15:13 11.8 °F /  -11.2 °C 10.9 °F /  -11.7 °C 1016.8 in /  34428.8 hPa SW 16.6 mph /  26.7 km/h 22.7 mph /  36.5 km/h 94 % 0.0 in /  0 mm
15:18 11.8 °F /  -11.2 °C 10.8 °F /  -11.8 °C 1016.8 in /  34428.8 hPa WSW 19.5 mph /  31.4 km/h 24.5 mph /  39.4 km/h 94 % 0.0 in /  0 mm
15:23 11.8 °F /  -11.2 °C 10.8 °F /  -11.8 °C 1016.8 in /  34428.8 hPa West 16.3 mph /  26.2 km/h 24.5 mph /  39.4 km/h 94 % 0.0 in /  0 mm
15:28 11.7 °F /  -11.3 °C 10.9 °F /  -11.7 °C 1016.8 in /  34428.8 hPa West 12.2 mph /  19.6 km/h 23.8 mph /  38.3 km/h 95 % 0.0 in /  0 mm
15:33 11.7 °F /  -11.3 °C 10.9 °F /  -11.7 °C 1016.8 in /  34428.8 hPa WSW 18.3 mph /  29.5 km/h 23.8 mph /  38.3 km/h 95 % 0.0 in /  0 mm
15:38 11.7 °F /  -11.3 °C 10.9 °F /  -11.7 °C 1016.1 in /  34405.1 hPa West 16.3 mph /  26.2 km/h 23.8 mph /  38.3 km/h 95 % 0.0 in /  0 mm
15:43 11.7 °F /  -11.3 °C 10.9 °F /  -11.7 °C 1016.1 in /  34405.1 hPa West 10.5 mph /  16.9 km/h 20.9 mph /  33.6 km/h 95 % 0.0 in /  0 mm
15:48 11.8 °F /  -11.2 °C 10.8 °F /  -11.8 °C 1016.1 in /  34405.1 hPa WSW 9.7 mph /  15.6 km/h 20.9 mph /  33.6 km/h 94 % 0.0 in /  0 mm
15:53 11.8 °F /  -11.2 °C 10.9 °F /  -11.7 °C 1016.1 in /  34405.1 hPa WSW 12.6 mph /  20.3 km/h 17.2 mph /  27.7 km/h 94 % 0.0 in /  0 mm
15:58 11.8 °F /  -11.2 °C 10.8 °F /  -11.8 °C 1016.1 in /  34405.1 hPa West 13.7 mph /  22 km/h 20.6 mph /  33.2 km/h 94 % 0.0 in /  0 mm
16:03 11.8 °F /  -11.2 °C 10.8 °F /  -11.8 °C 1016.1 in /  34405.1 hPa WSW 13.0 mph /  20.9 km/h 20.6 mph /  33.2 km/h 94 % 0.0 in /  0 mm
16:08 11.7 °F /  -11.3 °C 10.9 °F /  -11.7 °C 1016.1 in /  34405.1 hPa West 10.5 mph /  16.9 km/h 20.1 mph /  32.3 km/h 95 % 0.0 in /  0 mm
16:13 11.6 °F /  -11.3 °C 10.8 °F /  -11.8 °C 1016.1 in /  34405.1 hPa WSW 13.0 mph /  20.9 km/h 20.1 mph /  32.3 km/h 95 % 0.0 in /  0 mm
16:18 11.6 °F /  -11.3 °C 10.8 °F /  -11.8 °C 1016.1 in /  34405.1 hPa WSW 20.9 mph /  33.6 km/h 21.2 mph /  34.1 km/h 95 % 0.0 in /  0 mm
16:23 11.6 °F /  -11.3 °C 10.8 °F /  -11.8 °C 1015.1 in /  34371.3 hPa WSW 12.6 mph /  20.3 km/h 21.2 mph /  34.1 km/h 95 % 0.0 in /  0 mm
16:28 11.7 °F /  -11.3 °C 10.9 °F /  -11.7 °C 1015.1 in /  34371.3 hPa WSW 12.2 mph /  19.6 km/h 20.9 mph /  33.6 km/h 95 % 0.0 in /  0 mm
16:33 11.6 °F /  -11.3 °C 10.8 °F /  -11.8 °C 1015.1 in /  34371.3 hPa West 17.2 mph /  27.7 km/h 17.7 mph /  28.5 km/h 95 % 0.0 in /  0 mm
16:38 11.4 °F /  -11.4 °C 10.7 °F /  -11.8 °C 1015.1 in /  34371.3 hPa WSW 13.7 mph /  22 km/h 20.9 mph /  33.6 km/h 95 % 0.0 in /  0 mm
16:43 11.4 °F /  -11.4 °C 10.7 °F /  -11.8 °C 1015.1 in /  34371.3 hPa WSW 13.0 mph /  20.9 km/h 20.9 mph /  33.6 km/h 95 % 0.0 in /  0 mm
16:48 11.4 °F /  -11.4 °C 10.7 °F /  -11.8 °C 1015.1 in /  34371.3 hPa WSW 21.2 mph /  34.1 km/h 21.2 mph /  34.1 km/h 95 % 0.0 in /  0 mm
16:53 11.4 °F /  -11.4 °C 10.7 °F /  -11.8 °C 1015.1 in /  34371.3 hPa WSW 16.6 mph /  26.7 km/h 24.8 mph /  39.9 km/h 95 % 0.0 in /  0 mm
16:58 11.3 °F /  -11.5 °C 10.5 °F /  -11.9 °C 1015.1 in /  34371.3 hPa WSW 9.3 mph /  15 km/h 24.8 mph /  39.9 km/h 95 % 0.0 in /  0 mm
17:03 11.2 °F /  -11.6 °C 10.4 °F /  -12 °C 1015.1 in /  34371.3 hPa WSW 11.9 mph /  19.2 km/h 20.6 mph /  33.2 km/h 95 % 0.0 in /  0 mm
17:08 11.2 °F /  -11.6 °C 10.4 °F /  -12 °C 1015.1 in /  34371.3 hPa WSW 16.3 mph /  26.2 km/h 17.7 mph /  28.5 km/h 95 % 0.0 in /  0 mm
17:13 11.1 °F /  -11.6 °C 10.3 °F /  -12.1 °C 1015.1 in /  34371.3 hPa West 20.1 mph /  32.3 km/h 20.9 mph /  33.6 km/h 95 % 0.0 in /  0 mm
17:18 11.0 °F /  -11.7 °C 10.2 °F /  -12.1 °C 1015.1 in /  34371.3 hPa WSW 17.2 mph /  27.7 km/h 20.9 mph /  33.6 km/h 95 % 0.0 in /  0 mm
17:23 11.0 °F /  -11.7 °C 10.2 °F /  -12.1 °C 1015.1 in /  34371.3 hPa WSW 17.2 mph /  27.7 km/h 21.2 mph /  34.1 km/h 95 % 0.0 in /  0 mm
17:28 10.9 °F /  -11.7 °C 10.1 °F /  -12.2 °C 1015.1 in /  34371.3 hPa WSW 9.7 mph /  15.6 km/h 21.2 mph /  34.1 km/h 95 % 0.0 in /  0 mm
17:33 10.9 °F /  -11.7 °C 10.1 °F /  -12.2 °C 1015.1 in /  34371.3 hPa WSW 16.6 mph /  26.7 km/h 20.1 mph /  32.3 km/h 95 % 0.0 in /  0 mm
17:38 10.9 °F /  -11.7 °C 10.1 °F /  -12.2 °C 1015.1 in /  34371.3 hPa WSW 16.9 mph /  27.2 km/h 23.8 mph /  38.3 km/h 95 % 0.0 in /  0 mm
17:43 10.8 °F /  -11.8 °C 10.0 °F /  -12.2 °C 1015.1 in /  34371.3 hPa WSW 16.3 mph /  26.2 km/h 24.5 mph /  39.4 km/h 95 % 0.0 in /  0 mm
17:48 10.8 °F /  -11.8 °C 10.0 °F /  -12.2 °C 1015.1 in /  34371.3 hPa WSW 20.1 mph /  32.3 km/h 25.6 mph /  41.2 km/h 95 % 0.0 in /  0 mm
17:53 10.7 °F /  -11.8 °C 9.9 °F /  -12.3 °C 1015.1 in /  34371.3 hPa SW 14.0 mph /  22.5 km/h 25.9 mph /  41.7 km/h 95 % 0.0 in /  0 mm
17:58 10.7 °F /  -11.8 °C 9.9 °F /  -12.3 °C 1015.1 in /  34371.3 hPa SW 21.2 mph /  34.1 km/h 25.9 mph /  41.7 km/h 95 % 0.0 in /  0 mm
18:03 10.7 °F /  -11.8 °C 9.9 °F /  -12.3 °C 1015.1 in /  34371.3 hPa WSW 22.4 mph /  36 km/h 23.8 mph /  38.3 km/h 95 % 0.0 in /  0 mm
18:08 10.6 °F /  -11.9 °C 9.8 °F /  -12.3 °C 1015.1 in /  34371.3 hPa WSW 21.2 mph /  34.1 km/h 27.0 mph /  43.5 km/h 95 % 0.3 in /  7.62 mm
18:13 10.6 °F /  -11.9 °C 9.8 °F /  -12.3 °C 1015.1 in /  34371.3 hPa WSW 15.8 mph /  25.4 km/h 27.0 mph /  43.5 km/h 95 % 0.3 in /  7.62 mm
18:18 10.5 °F /  -11.9 °C 9.9 °F /  -12.3 °C 1015.1 in /  34371.3 hPa West 17.7 mph /  28.5 km/h 25.6 mph /  41.2 km/h 96 % 0.3 in /  7.62 mm
18:23 10.5 °F /  -11.9 °C 9.9 °F /  -12.3 °C 1015.1 in /  34371.3 hPa WSW 22.4 mph /  36 km/h 27.7 mph /  44.6 km/h 96 % 0.3 in /  7.62 mm
18:28 10.5 °F /  -11.9 °C 9.9 °F /  -12.3 °C 1015.1 in /  34371.3 hPa WSW 24.5 mph /  39.4 km/h 29.1 mph /  46.8 km/h 96 % 0.3 in /  7.62 mm
18:33 10.5 °F /  -11.9 °C 9.9 °F /  -12.3 °C 1015.1 in /  34371.3 hPa WSW 20.1 mph /  32.3 km/h 29.1 mph /  46.8 km/h 96 % 0.3 in /  7.62 mm
18:38 10.4 °F /  -12 °C 9.8 °F /  -12.3 °C 1015.1 in /  34371.3 hPa SSW 16.6 mph /  26.7 km/h 27.4 mph /  44.1 km/h 96 % 0.3 in /  7.62 mm
18:43 10.4 °F /  -12 °C 9.8 °F /  -12.3 °C 1015.1 in /  34371.3 hPa WSW 24.5 mph /  39.4 km/h 25.3 mph /  40.7 km/h 96 % 0.3 in /  7.62 mm
18:48 10.4 °F /  -12 °C 9.8 °F /  -12.3 °C 1015.1 in /  34371.3 hPa West 22.4 mph /  36 km/h 31.4 mph /  50.5 km/h 96 % 0.3 in /  7.62 mm
18:53 10.4 °F /  -12 °C 9.8 °F /  -12.3 °C 1015.1 in /  34371.3 hPa WSW 20.1 mph /  32.3 km/h 31.4 mph /  50.5 km/h 96 % 0.3 in /  7.62 mm
18:58 10.4 °F /  -12 °C 9.8 °F /  -12.3 °C 1015.1 in /  34371.3 hPa WSW 20.6 mph /  33.2 km/h 31.4 mph /  50.5 km/h 96 % 0.3 in /  7.62 mm
19:03 10.4 °F /  -12 °C 9.8 °F /  -12.3 °C 1015.1 in /  34371.3 hPa WSW 17.7 mph /  28.5 km/h 31.4 mph /  50.5 km/h 96 % 0.3 in /  7.62 mm
19:08 10.4 °F /  -12 °C 9.8 °F /  -12.3 °C 1015.1 in /  34371.3 hPa WSW 24.8 mph /  39.9 km/h 28.0 mph /  45.1 km/h 96 % 0.0 in /  0 mm
19:13 10.4 °F /  -12 °C 9.8 °F /  -12.3 °C 1015.1 in /  34371.3 hPa WSW 16.3 mph /  26.2 km/h 28.5 mph /  45.9 km/h 96 % 0.0 in /  0 mm
19:18 10.3 °F /  -12.1 °C 9.7 °F /  -12.4 °C 1015.1 in /  34371.3 hPa WSW 17.2 mph /  27.7 km/h 28.5 mph /  45.9 km/h 96 % 0.0 in /  0 mm
19:23 10.3 °F /  -12.1 °C 9.7 °F /  -12.4 °C 1015.1 in /  34371.3 hPa WSW 24.8 mph /  39.9 km/h 24.8 mph /  39.9 km/h 96 % 0.0 in /  0 mm
19:28 10.3 °F /  -12.1 °C 9.7 °F /  -12.4 °C 1015.1 in /  34371.3 hPa WSW 23.8 mph /  38.3 km/h 25.6 mph /  41.2 km/h 96 % 0.0 in /  0 mm
19:33 10.3 °F /  -12.1 °C 9.7 °F /  -12.4 °C 1015.1 in /  34371.3 hPa WSW 20.9 mph /  33.6 km/h 33.8 mph /  54.4 km/h 96 % 0.0 in /  0 mm
19:38 10.3 °F /  -12.1 °C 9.5 °F /  -12.5 °C 1015.1 in /  34371.3 hPa WSW 25.9 mph /  41.7 km/h 33.8 mph /  54.4 km/h 95 % 0.0 in /  0 mm
19:43 10.3 °F /  -12.1 °C 9.5 °F /  -12.5 °C 1015.1 in /  34371.3 hPa West 28.8 mph /  46.3 km/h 36.0 mph /  57.9 km/h 95 % 0.0 in /  0 mm
19:48 10.3 °F /  -12.1 °C 9.5 °F /  -12.5 °C 1015.1 in /  34371.3 hPa WSW 28.0 mph /  45.1 km/h 36.0 mph /  57.9 km/h 95 % 0.0 in /  0 mm
19:53 10.3 °F /  -12.1 °C 9.5 °F /  -12.5 °C 1015.1 in /  34371.3 hPa WSW 25.3 mph /  40.7 km/h 34.6 mph /  55.7 km/h 95 % 0.0 in /  0 mm
19:58 10.3 °F /  -12.1 °C 9.5 °F /  -12.5 °C 1015.1 in /  34371.3 hPa WSW 23.3 mph /  37.5 km/h 34.6 mph /  55.7 km/h 95 % 0.0 in /  0 mm
20:03 10.3 °F /  -12.1 °C 9.5 °F /  -12.5 °C 1015.1 in /  34371.3 hPa West 17.7 mph /  28.5 km/h 36.0 mph /  57.9 km/h 95 % 0.0 in /  0 mm
20:08 10.3 °F /  -12.1 °C 9.5 °F /  -12.5 °C 1015.1 in /  34371.3 hPa WSW 20.6 mph /  33.2 km/h 36.0 mph /  57.9 km/h 95 % 0.0 in /  0 mm
20:13 10.3 °F /  -12.1 °C 9.5 °F /  -12.5 °C 1015.1 in /  34371.3 hPa West 36.7 mph /  59.1 km/h 36.7 mph /  59.1 km/h 95 % 0.0 in /  0 mm
20:18 10.3 °F /  -12.1 °C 9.5 °F /  -12.5 °C 1015.1 in /  34371.3 hPa WSW 20.6 mph /  33.2 km/h 37.5 mph /  60.3 km/h 95 % 0.0 in /  0 mm
20:23 10.3 °F /  -12.1 °C 9.5 °F /  -12.5 °C 1014.1 in /  34337.4 hPa West 23.3 mph /  37.5 km/h 37.5 mph /  60.3 km/h 95 % 0.0 in /  0 mm
20:28 10.3 °F /  -12.1 °C 9.5 °F /  -12.5 °C 1014.1 in /  34337.4 hPa WSW 28.5 mph /  45.9 km/h 33.5 mph /  53.9 km/h 95 % 0.0 in /  0 mm
20:33 10.3 °F /  -12.1 °C 9.5 °F /  -12.5 °C 1014.1 in /  34337.4 hPa WSW 27.4 mph /  44.1 km/h 31.7 mph /  51 km/h 95 % 0.0 in /  0 mm
20:38 10.2 °F /  -12.1 °C 9.4 °F /  -12.6 °C 1014.1 in /  34337.4 hPa WSW 21.9 mph /  35.2 km/h 31.7 mph /  51 km/h 95 % 0.0 in /  0 mm
20:43 10.2 °F /  -12.1 °C 9.4 °F /  -12.6 °C 1014.1 in /  34337.4 hPa West 16.3 mph /  26.2 km/h 32.3 mph /  52 km/h 95 % 0.0 in /  0 mm
20:48 10.2 °F /  -12.1 °C 9.4 °F /  -12.6 °C 1014.1 in /  34337.4 hPa West 20.9 mph /  33.6 km/h 32.3 mph /  52 km/h 95 % 0.0 in /  0 mm
20:53 10.2 °F /  -12.1 °C 9.4 °F /  -12.6 °C 1015.1 in /  34371.3 hPa WSW 21.6 mph /  34.8 km/h 35.2 mph /  56.6 km/h 95 % 0.0 in /  0 mm
20:58 10.2 °F /  -12.1 °C 9.4 °F /  -12.6 °C 1015.1 in /  34371.3 hPa WSW 32.0 mph /  51.5 km/h 35.2 mph /  56.6 km/h 95 % 0.0 in /  0 mm
21:03 10.2 °F /  -12.1 °C 9.4 °F /  -12.6 °C 1015.1 in /  34371.3 hPa WSW 23.8 mph /  38.3 km/h 32.0 mph /  51.5 km/h 95 % 0.3 in /  7.62 mm
21:08 10.2 °F /  -12.1 °C 9.4 °F /  -12.6 °C 1014.1 in /  34337.4 hPa WSW 38.1 mph /  61.3 km/h 38.1 mph /  61.3 km/h 95 % 0.3 in /  7.62 mm
21:13 10.2 °F /  -12.1 °C 9.4 °F /  -12.6 °C 1014.1 in /  34337.4 hPa WSW 31.4 mph /  50.5 km/h 38.1 mph /  61.3 km/h 95 % 0.3 in /  7.62 mm
21:18 10.2 °F /  -12.1 °C 9.4 °F /  -12.6 °C 1014.1 in /  34337.4 hPa WSW 27.0 mph /  43.5 km/h 35.6 mph /  57.3 km/h 95 % 0.3 in /  7.62 mm
21:23 10.2 °F /  -12.1 °C 9.4 °F /  -12.6 °C 1014.1 in /  34337.4 hPa WSW 21.2 mph /  34.1 km/h 33.1 mph /  53.3 km/h 95 % 0.3 in /  7.62 mm
21:28 10.2 °F /  -12.1 °C 9.4 °F /  -12.6 °C 1014.1 in /  34337.4 hPa West 20.6 mph /  33.2 km/h 33.1 mph /  53.3 km/h 95 % 0.3 in /  7.62 mm
21:33 10.2 °F /  -12.1 °C 9.4 °F /  -12.6 °C 1014.1 in /  34337.4 hPa West 24.8 mph /  39.9 km/h 36.4 mph /  58.6 km/h 95 % 0.3 in /  7.62 mm
21:38 10.3 °F /  -12.1 °C 9.5 °F /  -12.5 °C 1014.1 in /  34337.4 hPa West 38.1 mph /  61.3 km/h 38.1 mph /  61.3 km/h 95 % 0.3 in /  7.62 mm
21:43 10.3 °F /  -12.1 °C 9.5 °F /  -12.5 °C 1014.1 in /  34337.4 hPa WSW 27.7 mph /  44.6 km/h 38.1 mph /  61.3 km/h 95 % 0.3 in /  7.62 mm
21:48 10.3 °F /  -12.1 °C 9.5 °F /  -12.5 °C 1014.1 in /  34337.4 hPa WSW 24.5 mph /  39.4 km/h 38.1 mph /  61.3 km/h 95 % 0.3 in /  7.62 mm
21:53 10.3 °F /  -12.1 °C 9.5 °F /  -12.5 °C 1014.1 in /  34337.4 hPa WSW 25.9 mph /  41.7 km/h 38.1 mph /  61.3 km/h 95 % 0.3 in /  7.62 mm
21:58 10.3 °F /  -12.1 °C 9.5 °F /  -12.5 °C 1014.1 in /  34337.4 hPa West 31.7 mph /  51 km/h 38.1 mph /  61.3 km/h 95 % 0.3 in /  7.62 mm
22:04 10.3 °F /  -12.1 °C 9.5 °F /  -12.5 °C 1014.1 in /  34337.4 hPa West 36.7 mph /  59.1 km/h 39.3 mph /  63.2 km/h 95 % 0.0 in /  0 mm
22:09 10.3 °F /  -12.1 °C 9.5 °F /  -12.5 °C 1014.1 in /  34337.4 hPa West 25.9 mph /  41.7 km/h 39.3 mph /  63.2 km/h 95 % 0.0 in /  0 mm
22:14 10.3 °F /  -12.1 °C 9.5 °F /  -12.5 °C 1014.1 in /  34337.4 hPa WSW 24.8 mph /  39.9 km/h 36.7 mph /  59.1 km/h 95 % 0.0 in /  0 mm
22:19 10.3 °F /  -12.1 °C 9.5 °F /  -12.5 °C 1014.1 in /  34337.4 hPa WSW 20.9 mph /  33.6 km/h 39.6 mph /  63.7 km/h 95 % 0.0 in /  0 mm
22:24 10.3 °F /  -12.1 °C 9.5 °F /  -12.5 °C 1014.1 in /  34337.4 hPa WSW 28.0 mph /  45.1 km/h 39.6 mph /  63.7 km/h 95 % 0.0 in /  0 mm
22:29 10.3 °F /  -12.1 °C 9.5 °F /  -12.5 °C 1014.1 in /  34337.4 hPa WSW 37.8 mph /  60.8 km/h 38.9 mph /  62.6 km/h 95 % 0.0 in /  0 mm
22:34 10.3 °F /  -12.1 °C 9.5 °F /  -12.5 °C 1014.1 in /  34337.4 hPa WSW 31.7 mph /  51 km/h 38.9 mph /  62.6 km/h 95 % 0.0 in /  0 mm
22:39 10.4 °F /  -12 °C 9.6 °F /  -12.4 °C 1014.1 in /  34337.4 hPa West 30.2 mph /  48.6 km/h 43.1 mph /  69.4 km/h 95 % 0.0 in /  0 mm
22:49 10.3 °F /  -12.1 °C 9.5 °F /  -12.5 °C 1014.1 in /  34337.4 hPa WSW 21.2 mph /  34.1 km/h 40.7 mph /  65.5 km/h 95 % 0.0 in /  0 mm
22:54 10.3 °F /  -12.1 °C 9.5 °F /  -12.5 °C 1014.1 in /  34337.4 hPa WSW 36.4 mph /  58.6 km/h 37.0 mph /  59.5 km/h 95 % 0.0 in /  0 mm
22:59 10.3 °F /  -12.1 °C 9.5 °F /  -12.5 °C 1014.1 in /  34337.4 hPa WSW 30.2 mph /  48.6 km/h 37.0 mph /  59.5 km/h 95 % 0.0 in /  0 mm
23:04 10.3 °F /  -12.1 °C 9.5 °F /  -12.5 °C 1014.1 in /  34337.4 hPa WSW 24.5 mph /  39.4 km/h 37.0 mph /  59.5 km/h 95 % 0.0 in /  0 mm
23:09 10.3 °F /  -12.1 °C 9.5 °F /  -12.5 °C 1014.1 in /  34337.4 hPa WSW 24.5 mph /  39.4 km/h 33.5 mph /  53.9 km/h 95 % 0.0 in /  0 mm
23:14 10.3 °F /  -12.1 °C 9.5 °F /  -12.5 °C 1014.1 in /  34337.4 hPa West 24.5 mph /  39.4 km/h 40.4 mph /  65 km/h 95 % 0.0 in /  0 mm
23:19 10.3 °F /  -12.1 °C 9.5 °F /  -12.5 °C 1014.1 in /  34337.4 hPa WSW 20.6 mph /  33.2 km/h 40.4 mph /  65 km/h 95 % 0.0 in /  0 mm
23:24 10.3 °F /  -12.1 °C 9.5 °F /  -12.5 °C 1014.1 in /  34337.4 hPa WSW 30.2 mph /  48.6 km/h 38.9 mph /  62.6 km/h 95 % 0.0 in /  0 mm
23:29 10.2 °F /  -12.1 °C 9.4 °F /  -12.6 °C 1014.1 in /  34337.4 hPa WSW 29.9 mph /  48.1 km/h 35.6 mph /  57.3 km/h 95 % 0.0 in /  0 mm
23:34 10.2 °F /  -12.1 °C 9.4 °F /  -12.6 °C 1014.1 in /  34337.4 hPa WSW 25.6 mph /  41.2 km/h 32.0 mph /  51.5 km/h 95 % 0.0 in /  0 mm
23:39 10.2 °F /  -12.1 °C 9.4 °F /  -12.6 °C 1013.1 in /  34303.6 hPa WSW 36.0 mph /  57.9 km/h 38.5 mph /  62 km/h 95 % 0.0 in /  0 mm
23:44 10.2 °F /  -12.1 °C 9.4 °F /  -12.6 °C 1013.1 in /  34303.6 hPa West 32.0 mph /  51.5 km/h 39.3 mph /  63.2 km/h 95 % 0.0 in /  0 mm
23:49 10.2 °F /  -12.1 °C 9.4 °F /  -12.6 °C 1013.1 in /  34303.6 hPa WSW 34.3 mph /  55.2 km/h 39.3 mph /  63.2 km/h 95 % 0.0 in /  0 mm
23:54 10.2 °F /  -12.1 °C 9.4 °F /  -12.6 °C 1013.1 in /  34303.6 hPa WSW 43.6 mph /  70.2 km/h 43.6 mph /  70.2 km/h 95 % 0.0 in /  0 mm
23:59 10.2 °F /  -12.1 °C 9.4 °F /  -12.6 °C 1013.1 in /  34303.6 hPa WSW 26.2 mph /  42.2 km/h 43.6 mph /  70.2 km/h 95 % 0.0 in /  0 mm
Le Gheer Warneton
Courtoisie de Weather Underground - 2.25 mb

Mise a jour : 22/02/2018 04:21:11
Généré par Cumulus 1.9.4 (1099)